Flight Track Log - Related Links

Times and Time Zones

All times are in EST time to prevent confusion due to time zone crossing. See the JBU480 flight status page for this flight to view local times or setup timezone preferences in your user account.

Time Position Orientation Groundspeed Altitude Reporting Facility
EST Latitude Longitude Course Direction KTS MPH feet Rate Location/Type
Wed 02:27:51 AM 33.9276 -118.5620 76° East  Level FlightAware Approximate
Wed 02:31:55 AM 33.9500 -118.4500 227° Southwest 178 205 1,600  Level Southern California TRACON
Wed 02:32:24 AM 33.9164 -118.4942 189° South 208 239 2,200 1,820 Climbing Los Angeles Center
Wed 02:33:24 AM 33.8578 -118.5050 188° South 225 259 4,300 2,400 Climbing Los Angeles Center
Wed 02:34:24 AM 33.7822 -118.5181 158° South 276 318 7,000 2,700 Climbing Los Angeles Center
Wed 02:35:24 AM 33.7119 -118.4836 81° East 282 325 9,700 2,100 Climbing Los Angeles Center
Wed 02:36:24 AM 33.7244 -118.3864 77° East 207 238 11,200 1,650 Climbing Los Angeles Center
Wed 02:37:24 AM 33.7475 -118.2672 78° East 300 345 13,000 1,850 Climbing Los Angeles Center
Wed 02:38:24 AM 33.7658 -118.1628 73° East 345 397 14,900 1,950 Climbing Los Angeles Center
Wed 02:39:24 AM 33.7969 -118.0433 37° Northeast 360 414 16,900 1,800 Climbing Los Angeles Center
Wed 02:40:24 AM 33.8794 -117.9678 36° Northeast 352 405 18,500 1,750 Climbing Los Angeles Center
Wed 02:41:24 AM 33.9664 -117.8919 38° Northeast 357 411 20,400 1,900 Climbing Los Angeles Center
Wed 02:42:24 AM 34.0531 -117.8111 44° Northeast 378 435 22,300 1,600 Climbing Los Angeles Center
Wed 02:43:24 AM 34.1294 -117.7222 48° Northeast 378 435 23,600 1,400 Climbing Los Angeles Center
Wed 02:44:24 AM 34.2100 -117.6133 48° Northeast 378 435 25,100 1,450 Climbing Los Angeles Center
Wed 02:45:24 AM 34.2906 -117.5067 47° Northeast 404 465 26,500 1,350 Climbing Los Angeles Center
Wed 02:46:24 AM 34.3711 -117.4022 51° Northeast 416 479 27,800 1,150 Climbing Los Angeles Center
Wed 02:47:24 AM 34.4431 -117.2950 51° Northeast 416 479 28,800 1,150 Climbing Los Angeles Center
Wed 02:48:24 AM 34.5192 -117.1828 63° Northeast 416 479 30,100 1,350 Climbing Los Angeles Center
Wed 02:49:24 AM 34.5725 -117.0547 64° Northeast 416 479 31,500 1,350 Climbing Los Angeles Center
Wed 02:50:24 AM 34.6214 -116.9317 63° Northeast 411 473 32,800 1,100 Climbing Los Angeles Center
Wed 02:51:24 AM 34.6744 -116.8058 65° Northeast 406 467 33,700 900 Climbing Los Angeles Center
Wed 02:52:24 AM 34.7208 -116.6822 62° Northeast 400 460 34,600 650 Climbing Los Angeles Center
Wed 02:53:24 AM 34.7672 -116.5739 63° Northeast 400 460 35,000 200 Climbing Los Angeles Center
Wed 02:54:24 AM 34.8178 -116.4528 64° Northeast 400 460 35,000  Level Los Angeles Center
Wed 02:55:24 AM 34.8658 -116.3314 63° Northeast 400 460 35,000  Level Los Angeles Center
Wed 02:56:24 AM 34.9161 -116.2100 63° Northeast 400 460 35,000  Level Los Angeles Center
Wed 02:57:24 AM 34.9664 -116.0908 66° East 400 460 35,000  Level Los Angeles Center
Wed 02:58:24 AM 35.0100 -115.9692 63° Northeast 400 460 35,000  Level Los Angeles Center
Wed 02:59:24 AM 35.0619 -115.8447 64° Northeast 400 460 35,000  Level Los Angeles Center
Wed 03:00:24 AM 35.1158 -115.7097 65° Northeast 400 460 35,000  Level Los Angeles Center
Wed 03:01:24 AM 35.1633 -115.5853 63° Northeast 400 460 35,000  Level Los Angeles Center
Wed 03:02:24 AM 35.2150 -115.4603 64° Northeast 400 460 35,000  Level Los Angeles Center
Wed 03:03:24 AM 35.2644 -115.3378 64° Northeast 405 466 35,000  Level Los Angeles Center
Wed 03:04:24 AM 35.3136 -115.2150 65° Northeast 405 466 35,000  Level Los Angeles Center
Wed 03:05:24 AM 35.3606 -115.0897 64° Northeast 405 466 35,000  Level Los Angeles Center
Wed 03:06:24 AM 35.4094 -114.9669 64° Northeast 405 466 35,000  Level Los Angeles Center
Wed 03:07:24 AM 35.4583 -114.8411 64° Northeast 405 466 35,000  Level Los Angeles Center
Wed 03:08:24 AM 35.5069 -114.7181 65° Northeast 405 466 35,000  Level Los Angeles Center
Wed 03:09:24 AM 35.5536 -114.5947 64° Northeast 405 466 35,000  Level Los Angeles Center
Wed 03:10:24 AM 35.6022 -114.4736 66° East 405 466 35,000  Level Los Angeles Center
Wed 03:11:24 AM 35.6483 -114.3450 64° Northeast 405 466 35,000  Level Los Angeles Center
Wed 03:12:24 AM 35.6967 -114.2236 66° East 400 460 35,000  Level Los Angeles Center
Wed 03:13:24 AM 35.7425 -114.0947 65° Northeast 400 460 35,000  Level Los Angeles Center
Wed 03:14:24 AM 35.7903 -113.9706 64° Northeast 400 460 35,000  Level Los Angeles Center
Wed 03:15:24 AM 35.8383 -113.8464 65° Northeast 400 460 35,000  Level Los Angeles Center
Wed 03:16:24 AM 35.8858 -113.7194 65° Northeast 400 460 35,000  Level Los Angeles Center
Wed 03:17:24 AM 35.9333 -113.5922 66° East 400 460 35,000  Level Los Angeles Center
Wed 03:18:24 AM 35.9786 -113.4650 65° Northeast 400 460 35,000  Level Los Angeles Center
Wed 03:19:24 AM 36.0258 -113.3403 64° Northeast 400 460 35,000  Level Los Angeles Center
Wed 03:20:24 AM 36.0711 -113.2231 66° East 400 460 35,000  Level Los Angeles Center
Wed 03:21:24 AM 36.1161 -113.0981 65° Northeast 400 460 35,000  Level Los Angeles Center
Wed 03:22:24 AM 36.1650 -112.9703 66° East 405 466 35,000  Level Los Angeles Center
Wed 03:23:24 AM 36.2117 -112.8397 66° East 405 466 35,000  Level Los Angeles Center
Wed 03:24:24 AM 36.2581 -112.7089 67° East 405 466 35,000  Level Los Angeles Center
Wed 03:25:24 AM 36.3064 -112.5703 65° Northeast 405 466 35,000  Level Los Angeles Center
Wed 03:26:24 AM 36.3547 -112.4392 66° East 405 466 35,000  Level Los Angeles Center
Wed 03:28:49 AM 36.4653 -112.1242 67° East 420 483 35,000  Level Denver Center
Wed 03:29:49 AM 36.5117 -111.9908 67° East 415 478 35,000  Level Denver Center
Wed 03:30:49 AM 36.5553 -111.8625 66° East 410 472 35,000  Level Denver Center
Wed 03:31:49 AM 36.6031 -111.7289 66° East 410 472 35,000  Level Denver Center
Wed 03:32:49 AM 36.6414 -111.6206 67° East 410 472 35,000  Level Denver Center
Wed 03:33:49 AM 36.6919 -111.4739 66° East 410 472 35,000 50 Level Denver Center
Wed 03:34:49 AM 36.7394 -111.3400 67° East 410 472 35,100  Climbing Denver Center
Wed 03:35:49 AM 36.7847 -111.2056 67° East 410 472 35,000 -50 Descending Denver Center
Wed 03:36:49 AM 36.8297 -111.0711 68° East 410 472 35,000  Level Denver Center
Wed 03:37:49 AM 36.8725 -110.9414 67° East 410 472 35,000  Level Denver Center
Wed 03:38:49 AM 36.9172 -110.8092 66° East 410 472 35,000  Level Denver Center
Wed 03:39:49 AM 36.9686 -110.6617 67° East 410 472 35,000  Level Denver Center
Wed 03:40:49 AM 37.0131 -110.5292 67° East 410 472 35,000  Level Denver Center
Wed 03:41:49 AM 37.0597 -110.3914 67° East 410 472 35,000  Level Denver Center
Wed 03:42:49 AM 37.1058 -110.2558 65° Northeast 410 472 35,000  Level Denver Center
Wed 03:43:49 AM 37.1561 -110.1231 67° East 410 472 35,000  Level Denver Center
Wed 03:44:49 AM 37.2022 -109.9847 67° East 416 479 35,000  Level Denver Center
Wed 03:45:49 AM 37.2411 -109.8667 67° East 416 479 35,000  Level Denver Center
Wed 03:46:49 AM 37.2914 -109.7150 68° East 411 473 35,000  Level Denver Center
Wed 03:47:49 AM 37.3350 -109.5814 69° East 411 473 35,000  Level Denver Center
Wed 03:48:49 AM 37.3761 -109.4447 67° East 411 473 35,000  Level Denver Center
Wed 03:49:49 AM 37.4167 -109.3261 69° East 411 473 35,000  Level Denver Center
Wed 03:50:49 AM 37.4642 -109.1736 67° East 411 473 35,000  Level Denver Center
Wed 03:51:49 AM 37.5089 -109.0419 69° East 411 473 35,000  Level Denver Center
Wed 03:52:49 AM 37.5514 -108.9047 69° East 411 473 35,000  Level Denver Center
Wed 03:53:49 AM 37.5894 -108.7803 68° East 411 473 35,000  Level Denver Center
Wed 03:54:49 AM 37.6339 -108.6403 68° East 411 473 35,000 50 Level Denver Center
Wed 03:55:49 AM 37.6828 -108.4869 69° East 425 489 35,100 50 Climbing Denver Center
Wed 03:56:49 AM 37.7247 -108.3492 68° East 425 489 35,100 -50 Level Denver Center
Wed 03:57:49 AM 37.7642 -108.2267 69° East 425 489 35,000 -50 Descending Denver Center
Wed 03:58:49 AM 37.8081 -108.0833 69° East 425 489 35,000  Level Denver Center
Wed 03:59:49 AM 37.8558 -107.9267 69° East 425 489 35,000  Level Denver Center
Wed 04:00:49 AM 37.8994 -107.7856 70° East 425 489 35,000  Level Denver Center
Wed 04:01:49 AM 37.9361 -107.6547 69° East 430 495 35,000  Level Denver Center
Wed 04:02:49 AM 37.9794 -107.5078 67° East 431 496 35,000 50 Level Denver Center
Wed 04:03:49 AM 38.0286 -107.3583 70° East 422 486 35,100  Climbing Denver Center
Wed 04:04:49 AM 38.0692 -107.2139 68° East 431 496 35,000 -50 Descending Denver Center
Wed 04:05:49 AM 38.1075 -107.0903 69° East 425 489 35,000  Level Denver Center
Wed 04:06:49 AM 38.1542 -106.9350 69° East 425 489 35,000  Level Denver Center
Wed 04:07:49 AM 38.1964 -106.7925 70° East 426 490 35,000 50 Level Denver Center
Wed 04:08:49 AM 38.2342 -106.6606 70° East 426 490 35,100  Climbing Denver Center
Wed 04:09:49 AM 38.2758 -106.5153 70° East 426 490 35,000 -50 Descending Denver Center
Wed 04:10:49 AM 38.3217 -106.3567 70° East 426 490 35,000  Level Denver Center
Wed 04:11:49 AM 38.3611 -106.2189 70° East 420 483 35,000  Level Denver Center
Wed 04:12:49 AM 38.4003 -106.0811 69° East 406 467 35,000  Level Denver Center
Wed 04:13:49 AM 38.4417 -105.9456 73° East 404 465 35,000  Level Denver Center
Wed 04:14:49 AM 38.4722 -105.8208 68° East 405 466 35,000  Level Denver Center
Wed 04:15:49 AM 38.5150 -105.6825 71° East 410 472 35,000  Level Denver Center
Wed 04:16:49 AM 38.5517 -105.5439 69° East 410 472 35,000  Level Denver Center
Wed 04:17:49 AM 38.5922 -105.4053 71° East 415 478 35,000  Level Denver Center
Wed 04:18:49 AM 38.6303 -105.2639 69° East 410 472 35,000  Level Denver Center
Wed 04:19:49 AM 38.6706 -105.1278 71° East 410 472 35,000  Level Denver Center
Wed 04:20:49 AM 38.7083 -104.9886 71° East 410 472 35,000 50 Level Denver Center
Wed 04:21:49 AM 38.7500 -104.8333 71° East 410 472 35,100  Climbing Denver Center
Wed 04:22:49 AM 38.7897 -104.6886 70° East 410 472 35,000  Descending Denver Center
Wed 04:23:49 AM 38.8289 -104.5464 70° East 415 478 35,100  Climbing Denver Center
Wed 04:24:49 AM 38.8683 -104.4064 72° East 415 478 35,000 -50 Descending Denver Center
Wed 04:25:49 AM 38.9053 -104.2586 70° East 420 483 35,000  Level Denver Center
Wed 04:26:49 AM 38.9442 -104.1186 71° East 420 483 35,000  Level Denver Center
Wed 04:27:49 AM 38.9828 -103.9703 71° East 425 489 35,000  Level Denver Center
Wed 04:28:49 AM 39.0211 -103.8275 71° East 431 496 35,000  Level Denver Center
Wed 04:29:49 AM 39.0614 -103.6789 71° East 429 494 35,000 50 Level Denver Center
Wed 04:30:49 AM 39.0994 -103.5328 71° East 429 494 35,100  Climbing Denver Center
Wed 04:31:49 AM 39.1394 -103.3839 71° East 429 494 35,000 -50 Descending Denver Center
Wed 04:32:49 AM 39.1769 -103.2403 73° East 429 494 35,000  Level Denver Center
Wed 04:33:49 AM 39.2144 -103.0856 71° East 436 502 35,000  Level Denver Center
Wed 04:34:49 AM 39.2497 -102.9497 71° East 443 510 35,000  Level Denver Center
Wed 04:35:49 AM 39.2908 -102.7922 73° East 443 510 35,000  Level Denver Center
Wed 04:36:49 AM 39.3311 -102.6208 70° East 448 516 35,000  Level Denver Center
Wed 04:37:49 AM 39.3719 -102.4789 74° East 453 521 35,000  Level Denver Center
Wed 04:38:49 AM 39.4081 -102.3181 74° East 458 527 35,000  Level Denver Center
Wed 04:39:49 AM 39.4475 -102.1408 71° East 464 534 35,000  Level Denver Center
Wed 04:40:49 AM 39.4894 -101.9847 73° East 464 534 35,000  Level Denver Center
Wed 04:41:49 AM 39.5233 -101.8425 72° East 464 534 35,000  Level Denver Center
Wed 04:42:49 AM 39.5625 -101.6811 72° East 458 527 35,000  Level Denver Center
Wed 04:43:49 AM 39.6053 -101.5056 73° East 463 533 35,000  Level Denver Center
Wed 04:44:49 AM 39.6439 -101.3433 72° East 471 542 35,000  Level Denver Center
Wed 04:45:49 AM 39.6792 -101.1978 74° East 471 542 35,000  Level Denver Center
Wed 04:46:49 AM 39.7186 -101.0192 72° East 464 534 35,000  Level Denver Center
Wed 04:47:49 AM 39.7589 -100.8592 74° East 464 534 35,000  Level Denver Center
Wed 04:48:49 AM 39.7950 -100.6994 73° East 464 534 35,000  Level Denver Center
Wed 04:49:49 AM 39.8289 -100.5503 73° East 469 540 35,000  Level Denver Center
Wed 04:50:49 AM 39.8700 -100.3761 74° East 464 534 35,000  Level Denver Center
Wed 04:51:49 AM 39.9053 -100.2161 73° East 464 534 35,000  Level Denver Center
Wed 04:52:49 AM 39.9422 -100.0553 74° East 464 534 35,000  Level Denver Center
Wed 04:53:49 AM 39.9789 -99.8919 74° East 464 534 35,000  Level Denver Center
Wed 04:54:49 AM 40.0153 -99.7283 75° East 464 534 35,000  Level Denver Center
Wed 04:56:22 AM 40.0697 -99.4683 74° East 467 537 35,000  Level Minneapolis Center
Wed 04:57:22 AM 40.1058 -99.3036 73° East 467 537 35,000  Level Minneapolis Center
Wed 04:58:22 AM 40.1439 -99.1364 74° East 467 537 35,000  Level Minneapolis Center
Wed 04:59:22 AM 40.1794 -98.9714 75° East 472 543 35,000  Level Minneapolis Center
Wed 05:00:22 AM 40.2128 -98.8033 74° East 472 543 35,000  Level Minneapolis Center
Wed 05:01:22 AM 40.2500 -98.6353 75° East 472 543 35,000  Level Minneapolis Center
Wed 05:02:22 AM 40.2850 -98.4669 75° East 472 543 35,000  Level Minneapolis Center
Wed 05:03:22 AM 40.3197 -98.2986 75° East 472 543 35,000  Level Minneapolis Center
Wed 05:04:22 AM 40.3542 -98.1297 74° East 472 543 35,000  Level Minneapolis Center
Wed 05:05:22 AM 40.3908 -97.9556 75° East 477 549 35,000  Level Minneapolis Center
Wed 05:06:22 AM 40.4247 -97.7867 75° East 482 555 35,000  Level Minneapolis Center
Wed 05:07:22 AM 40.4606 -97.6147 76° East 482 555 35,000  Level Minneapolis Center
Wed 05:08:22 AM 40.4942 -97.4400 77° East 488 562 35,000  Level Minneapolis Center
Wed 05:09:22 AM 40.5233 -97.2700 75° East 488 562 35,000  Level Minneapolis Center
Wed 05:10:22 AM 40.5508 -97.1300 75° East 488 562 35,000  Level Minneapolis Center
Wed 05:11:22 AM 40.5858 -96.9547 75° East 493 567 35,000  Level Minneapolis Center
Wed 05:12:22 AM 40.6231 -96.7683 77° East 488 562 35,000  Level Minneapolis Center
Wed 05:13:22 AM 40.6578 -96.5708 76° East 493 567 35,000  Level Minneapolis Center
Wed 05:14:22 AM 40.6919 -96.3947 76° East 493 567 35,000  Level Minneapolis Center
Wed 05:15:22 AM 40.7258 -96.2158 77° East 493 567 35,000  Level Minneapolis Center
Wed 05:16:22 AM 40.7572 -96.0394 76° East 493 567 35,000  Level Minneapolis Center
Wed 05:17:22 AM 40.7906 -95.8603 77° East 498 573 35,000  Level Minneapolis Center
Wed 05:18:22 AM 40.8233 -95.6781 75° East 498 573 35,000  Level Minneapolis Center
Wed 05:19:22 AM 40.8583 -95.4986 78° East 498 573 35,000  Level Minneapolis Center
Wed 05:20:22 AM 40.8886 -95.3158 77° East 503 579 35,000  Level Minneapolis Center
Wed 05:21:22 AM 40.9206 -95.1331 76° East 508 585 35,000  Level Minneapolis Center
Wed 05:22:22 AM 40.9544 -94.9558 78° East 508 585 35,000  Level Minneapolis Center
Wed 05:23:22 AM 40.9839 -94.7725 77° East 508 585 35,000  Level Minneapolis Center
Wed 05:24:22 AM 41.0150 -94.5919 78° East 508 585 35,000  Level Minneapolis Center
Wed 05:25:22 AM 41.0417 -94.4278 76° East 508 585 35,000  Level Minneapolis Center
Wed 05:26:22 AM 41.0764 -94.2414 78° East 508 585 35,000  Level Minneapolis Center
Wed 05:28:14 AM 41.1322 -93.9019 78° East 507 583 35,000  Level Chicago Center
Wed 05:29:14 AM 41.1625 -93.7139 78° East 507 583 35,000  Level Chicago Center
Wed 05:30:14 AM 41.1925 -93.5281 77° East 507 583 35,000  Level Chicago Center
Wed 05:31:14 AM 41.2242 -93.3422 79° East 507 583 35,000  Level Chicago Center
Wed 05:32:14 AM 41.2514 -93.1533 77° East 513 590 35,000  Level Chicago Center
Wed 05:33:14 AM 41.2825 -92.9672 78° East 513 590 35,000  Level Chicago Center
Wed 05:34:14 AM 41.3111 -92.7808 79° East 518 596 35,000  Level Chicago Center
Wed 05:35:14 AM 41.3394 -92.5914 79° East 518 596 35,000  Level Chicago Center
Wed 05:36:14 AM 41.3678 -92.3992 79° East 524 603 35,000  Level Chicago Center
Wed 05:37:14 AM 41.3981 -92.1900 79° East 524 603 35,000  Level Chicago Center
Wed 05:38:14 AM 41.4256 -92.0031 79° East 519 597 35,000  Level Chicago Center
Wed 05:39:14 AM 41.4531 -91.8044 78° East 525 604 35,000  Level Chicago Center
Wed 05:40:14 AM 41.4817 -91.6172 79° East 525 604 35,000  Level Chicago Center
Wed 05:41:14 AM 41.5061 -91.4406 79° East 525 604 35,000  Level Chicago Center
Wed 05:42:14 AM 41.5322 -91.2528 79° East 525 604 35,000  Level Chicago Center
Wed 05:43:14 AM 41.5603 -91.0594 80° East 525 604 35,000  Level Chicago Center
Wed 05:44:14 AM 41.5839 -90.8711 79° East 525 604 35,000  Level Chicago Center
Wed 05:45:14 AM 41.6111 -90.6747 80° East 525 604 35,000  Level Chicago Center
Wed 05:46:14 AM 41.6383 -90.4694 80° East 525 604 35,000  Level Chicago Center
Wed 05:47:14 AM 41.6631 -90.2811 80° East 525 604 35,000  Level Chicago Center
Wed 05:48:14 AM 41.6894 -90.0867 80° East 525 604 35,000  Level Chicago Center
Wed 05:49:14 AM 41.7136 -89.8922 80° East 525 604 35,000  Level Chicago Center
Wed 05:50:14 AM 41.7392 -89.6978 81° East 525 604 35,000  Level Chicago Center
Wed 05:51:14 AM 41.7606 -89.5086 80° East 525 604 35,000  Level Chicago Center
Wed 05:52:14 AM 41.7856 -89.3108 82° East 525 604 35,000  Level Chicago Center
Wed 05:53:14 AM 41.8061 -89.1214 80° East 525 604 35,000  Level Chicago Center
Wed 05:54:14 AM 41.8308 -88.9347 81° East 520 598 35,000  Level Chicago Center
Wed 05:55:14 AM 41.8528 -88.7394 81° East 520 598 35,000  Level Chicago Center
Wed 05:56:14 AM 41.8744 -88.5439 81° East 520 598 35,000  Level Chicago Center
Wed 05:57:14 AM 41.8981 -88.3483 82° East 525 604 35,000  Level Chicago Center
Wed 05:58:14 AM 41.9189 -88.1500 81° East 525 604 35,000  Level Chicago Center
Wed 05:59:14 AM 41.9417 -87.9569 83° East 525 604 35,000  Level Chicago Center
Wed 06:00:14 AM 41.9600 -87.7611 80° East 525 604 35,000  Level Chicago Center
Wed 06:01:14 AM 41.9844 -87.5678 82° East 525 604 35,000  Level Chicago Center
Wed 06:02:14 AM 42.0042 -87.3714 82° East 525 604 35,000  Level Chicago Center
Wed 06:03:14 AM 42.0236 -87.1808 82° East 525 604 35,000  Level Chicago Center
Wed 06:04:14 AM 42.0447 -86.9817 83° East 525 604 35,000  Level Chicago Center
Wed 06:05:14 AM 42.0633 -86.7878 83° East 525 604 35,000  Level Chicago Center
Wed 06:06:14 AM 42.0800 -86.6053 82° East 525 604 35,000  Level Chicago Center
Wed 06:07:14 AM 42.1000 -86.4058 83° East 532 612 35,000  Level Chicago Center
Wed 06:08:14 AM 42.1178 -86.2089 83° East 532 612 35,000  Level Chicago Center
Wed 06:09:14 AM 42.1372 -86.0064 83° East 538 619 35,000  Level Chicago Center
Wed 06:10:14 AM 42.1542 -85.8094 83° East 538 619 35,000  Level Chicago Center
Wed 06:12:37 AM 42.1981 -85.3178 84° East 536 617 35,000  Level Cleveland Center
Wed 06:13:37 AM 42.2142 -85.1228 84° East 536 617 35,000  Level Cleveland Center
Wed 06:14:37 AM 42.2281 -84.9272 84° East 531 611 35,000  Level Cleveland Center
Wed 06:15:37 AM 42.2436 -84.7292 85° East 531 611 35,000  Level Cleveland Center
Wed 06:16:37 AM 42.2547 -84.5361 84° East 520 598 35,000  Level Cleveland Center
Wed 06:17:37 AM 42.2697 -84.3378 84° East 520 598 35,000 -50 Level Cleveland Center
Wed 06:18:37 AM 42.2839 -84.1478 84° East 520 598 34,900  Descending Cleveland Center
Wed 06:19:37 AM 42.2978 -83.9689 84° East 520 598 35,000 50 Climbing Cleveland Center
Wed 06:20:36 AM 42.3139 -83.7731 86° East 520 598 35,000  Level Cleveland Center
Wed 06:21:36 AM 42.3228 -83.5939 83° East 520 598 35,000  Level Cleveland Center
Wed 06:22:37 AM 42.3408 -83.3783 85° East 520 598 35,000  Level Cleveland Center
Wed 06:23:37 AM 42.3542 -83.1625 86° East 520 598 35,000  Level Cleveland Center
Wed 06:24:36 AM 42.3647 -82.9633 84° East 525 604 35,000  Level Cleveland Center
Wed 06:25:37 AM 42.3811 -82.7644 85° East 530 610 35,000  Level Cleveland Center
Wed 06:26:37 AM 42.3931 -82.5681 86° East 530 610 35,000 -50 Level Cleveland Center
Wed 06:27:37 AM 42.4022 -82.3911 86° East 530 610 34,900 -50 Descending Cleveland Center
Wed 06:28:37 AM 42.4136 -82.1889 85° East 535 616 34,900 50 Level Cleveland Center
Wed 06:29:36 AM 42.4267 -81.9756 85° East 535 616 35,000 50 Climbing Cleveland Center
Wed 06:30:36 AM 42.4394 -81.7733 86° East 535 616 35,000  Level Cleveland Center
Wed 06:31:37 AM 42.4497 -81.5764 86° East 535 616 35,000  Level Cleveland Center
Wed 06:32:37 AM 42.4594 -81.3964 86° East 535 616 35,000  Level Cleveland Center
Wed 06:33:37 AM 42.4711 -81.1911 86° East 535 616 35,000  Level Cleveland Center
Wed 06:34:37 AM 42.4803 -80.9886 87° East 535 616 35,000  Level Cleveland Center
Wed 06:35:37 AM 42.4892 -80.7858 86° East 538 619 35,000  Level Cleveland Center
Wed 06:36:37 AM 42.4997 -80.5861 88° East 538 619 35,000  Level Cleveland Center
Wed 06:37:37 AM 42.5058 -80.3636 86° East 538 619 35,000  Level Cleveland Center
Wed 06:38:37 AM 42.5158 -80.1606 86° East 539 620 35,000  Level Cleveland Center
Wed 06:39:37 AM 42.5272 -79.9578 87° East 534 615 35,000  Level Cleveland Center
Wed 06:40:37 AM 42.5344 -79.7547 88° East 539 620 35,000  Level Cleveland Center
Wed 06:41:37 AM 42.5392 -79.5575 87° East 534 615 35,000  Level Cleveland Center
Wed 06:42:37 AM 42.5456 -79.3572 87° East 534 615 35,000  Level Cleveland Center
Wed 06:43:37 AM 42.5536 -79.1542 88° East 539 620 35,000  Level Cleveland Center
Wed 06:44:37 AM 42.5592 -78.9539 89° East 534 615 35,000  Level Cleveland Center
Wed 06:45:37 AM 42.5625 -78.7481 87° East 534 615 35,000  Level Cleveland Center
Wed 06:46:37 AM 42.5694 -78.5506 89° East 534 615 35,000  Level Cleveland Center
Wed 06:47:37 AM 42.5725 -78.3728 88° East 534 615 35,000  Level Cleveland Center
Wed 06:48:37 AM 42.5767 -78.1694 88° East 534 615 35,000  Level Cleveland Center
Wed 06:49:37 AM 42.5808 -77.9692 88° East 534 615 35,000  Level Cleveland Center
Wed 06:50:37 AM 42.5844 -77.7772 89° East 522 601 35,000 -50 Level Cleveland Center
Wed 06:51:37 AM 42.5878 -77.5767 89° East 516 594 34,900 34 Descending Cleveland Center
Wed 06:53:31 AM 42.5933 -77.1792 89° East 526 605 35,100 34 Climbing Boston Center
Wed 06:54:31 AM 42.5953 -76.9789 89° East 532 612 35,000 -50 Descending Boston Center
Wed 06:55:31 AM 42.5967 -76.7842 89° East 527 606 35,000 -50 Level Boston Center
Wed 06:56:31 AM 42.6000 -76.5842 90° East 527 606 34,900  Descending Boston Center
Wed 06:57:31 AM 42.6006 -76.3894 89° East 521 600 35,000 50 Climbing Boston Center
Wed 06:58:31 AM 42.6031 -76.1919 90° East 521 600 35,000  Level Boston Center
Wed 06:59:31 AM 42.6033 -75.9944 90° East 516 594 35,000  Level Boston Center
Wed 07:00:31 AM 42.6031 -75.7997 90° East 516 594 35,000  Level Boston Center
Wed 07:01:31 AM 42.6025 -75.5994 90° East 521 600 35,000  Level Boston Center
Wed 07:02:31 AM 42.6014 -75.4047 90° East 521 600 35,000  Level Boston Center
Wed 07:03:31 AM 42.6022 -75.2044 91° East 521 600 35,000  Level Boston Center
Wed 07:04:31 AM 42.5986 -75.0069 89° East 521 600 35,000  Level Boston Center
Wed 07:05:31 AM 42.6008 -74.8094 91° East 521 600 35,000  Level Boston Center
Wed 07:06:31 AM 42.5986 -74.6036 91° East 534 615 35,000  Level Boston Center
Wed 07:07:31 AM 42.5956 -74.4314 91° East 534 615 35,000  Level Boston Center
Wed 07:08:31 AM 42.5931 -74.2111 91° East 534 615 35,000  Level Boston Center
Wed 07:09:31 AM 42.5914 -74.0392 91° East 523 602 35,000  Level Boston Center
Wed 07:10:31 AM 42.5878 -73.8389 92° East 523 602 35,000  Level Boston Center
Wed 07:11:31 AM 42.5836 -73.6442 92° East 518 596 35,000  Level Boston Center
Wed 07:12:31 AM 42.5794 -73.4439 90° East 518 596 35,000 -1,100 Level Boston Center
Wed 07:13:31 AM 42.5789 -73.2408 92° East 525 604 32,800 -2,300 Descending Boston Center
Wed 07:14:31 AM 42.5739 -73.0464 92° East 530 610 30,400 -2,500 Descending Boston Center
Wed 07:15:31 AM 42.5683 -72.8544 92° East 519 597 27,800 -2,650 Descending Boston Center
Wed 07:16:31 AM 42.5628 -72.6600 91° East 507 583 25,100 -2,700 Descending Boston Center
Wed 07:17:31 AM 42.5608 -72.4853 92° East 492 566 22,400 -3,150 Descending Boston Center
Wed 07:18:31 AM 42.5544 -72.2850 93° East 486 559 18,800 -3,100 Descending Boston Center
Wed 07:19:31 AM 42.5481 -72.1300 95° East 458 527 16,200 -1,850 Descending Boston Center
Wed 07:20:31 AM 42.5369 -71.9583 98° East 434 499 15,100 -1,850 Descending Boston Center
Wed 07:21:31 AM 42.5239 -71.8289 96° East 393 452 12,500 -2,150 Descending Boston Center
Wed 07:22:31 AM 42.5125 -71.6711 99° East 387 445 10,800 -1,200 Descending Boston Center
Wed 07:23:31 AM 42.4992 -71.5558 77° East 357 411 10,100 -1,100 Descending Boston Center
Wed 07:24:31 AM 42.5208 -71.4258 74° East 323 372 8,600 -1,482 Descending Boston Center
Wed 07:24:56 AM 42.5333 -71.3667 77° East 321 369 8,000 -1,553 Descending Boston TRACON
Wed 07:25:56 AM 42.5500 -71.2667 69° East 315 362 6,400 -1,450 Descending Boston TRACON
Wed 07:26:56 AM 42.5833 -71.1500 101° East 303 349 5,100 -1,619 Descending Boston TRACON
Wed 07:28:02 AM 42.5667 -71.0333 118° Southeast 283 326 3,000 -1,050 Descending Boston TRACON
Wed 07:28:56 AM 42.5333 -70.9500 160° South 239 275 3,000 -158 Level Boston TRACON
Wed 07:29:56 AM 42.5000 -70.9333 206° Southwest 173 199 2,700 -600 Descending Boston TRACON
Wed 07:30:56 AM 42.4500 -70.9667 198° South 158 182 1,800 -735 Descending Boston TRACON
Wed 07:32:31 AM 42.4056 -70.9864 158° South 141 162 800 -694 Descending Boston Center
Wed 07:32:57 AM 42.4000 -70.9833 208° Southwest 121 139 400 11,600 Descending Boston TRACON
Wed 07:34:31 AM 42.3394 -71.0272 208° Southwest 136 157 24,000 15,064 Climbing Boston Center

Login

Don't have an account? Register now (free) for customized features, flight alerts, and more!